Time;durP1;ratioP1;P1;durP2;ratioP2;P2;SDS_P1;SDS_P2;PMS_P1;PMS_P2;Temp;Humidity;BMP_temperature;BMP_pressure;BME280_temperature;BME280_humidity;BME280_pressure;Samples;Min_cycle;Max_cycle;Signal;HPM_P1;HPM_P2
2022/07/30 00:02:05;;;;;;;3.85;2.30;;;18.20;93.20;;;17.39;65.26;97375.66;5032050;28;20469;-75
2022/07/30 00:04:31;;;;;;;6.38;2.83;;;18.20;93.70;;;17.34;65.92;97375.78;5031643;28;20403;-75
2022/07/30 00:06:57;;;;;;;3.58;2.42;;;18.10;94.30;;;17.29;66.72;97372.41;5032014;28;20522;-75
2022/07/30 00:09:24;;;;;;;4.50;2.53;;;18.10;95.20;;;17.28;67.64;97382.31;5031979;28;20534;-74
2022/07/30 00:11:50;;;;;;;7.60;2.67;;;18.10;96.10;;;17.31;67.68;97375.56;5031741;28;20498;-74
2022/07/30 00:14:16;;;;;;;5.50;3.17;;;18.10;96.40;;;17.26;67.81;97384.47;5031322;28;20453;-75
2022/07/30 00:16:43;;;;;;;7.97;2.85;;;18.10;96.40;;;17.27;68.08;97388.75;5031684;28;20405;-75
2022/07/30 00:19:09;;;;;;;6.30;3.10;;;18.10;97.00;;;17.21;68.66;97379.22;5031709;28;20399;-74
2022/07/30 00:21:35;;;;;;;7.40;3.03;;;18.00;97.20;;;17.22;69.08;97383.44;5031611;28;20453;-75
2022/07/30 00:24:01;;;;;;;5.22;3.60;;;18.00;97.80;;;17.28;70.70;97384.19;5031096;28;20497;-75
2022/07/30 00:26:29;;;;;;;8.57;3.43;;;18.10;99.90;;;17.31;71.07;97387.06;5023064;28;20910;-75
2022/07/30 00:28:55;;;;;;;10.55;3.80;;;18.10;99.90;;;17.28;71.40;97387.66;5031209;28;20419;-75
2022/07/30 00:31:21;;;;;;;4.28;2.90;;;18.10;99.90;;;17.36;71.36;97383.50;5030969;28;20395;-74
2022/07/30 00:33:47;;;;;;;6.10;3.70;;;18.10;99.90;;;17.35;71.57;97382.72;5027138;28;20751;-74
2022/07/30 00:36:13;;;;;;;4.50;3.13;;;18.10;99.90;;;17.37;71.59;97377.84;5027016;28;20414;-75
2022/07/30 00:38:38;;;;;;;8.02;3.97;;;18.20;99.90;;;17.37;71.77;97380.53;5023086;28;20403;-75
2022/07/30 00:41:04;;;;;;;8.35;4.32;;;18.10;99.90;;;17.50;73.11;97383.53;5030372;28;20473;-75
2022/07/30 00:43:32;;;;;;;6.90;4.15;;;18.30;99.90;;;17.50;73.61;97381.66;5022413;28;20409;-75
2022/07/30 00:45:58;;;;;;;5.30;4.15;;;18.30;99.90;;;17.51;74.65;97377.09;5031165;28;20500;-75
2022/07/30 00:48:23;;;;;;;7.80;4.28;;;18.30;99.90;;;17.58;74.80;97383.66;5030768;28;20403;-75
2022/07/30 00:50:49;;;;;;;5.70;4.53;;;18.30;99.90;;;17.63;75.03;97378.22;5030788;28;20738;-75
2022/07/30 00:53:15;;;;;;;6.47;4.80;;;18.40;99.90;;;17.65;74.92;97378.72;5077432;22;20435;-74
2022/07/30 00:55:41;;;;;;;5.28;3.90;;;18.40;99.90;;;17.71;75.06;97387.44;5071002;28;20876;-73
2022/07/30 00:58:07;;;;;;;8.65;4.35;;;18.50;99.90;;;17.73;74.34;97371.88;5070767;28;20399;-74
2022/07/30 01:00:35;;;;;;;10.63;4.23;;;18.50;99.90;;;17.74;74.39;97371.56;5070740;28;20410;-74
2022/07/30 01:03:01;;;;;;;5.88;3.90;;;18.50;99.90;;;17.76;74.28;97377.44;5070287;28;20752;-74
2022/07/30 01:05:26;;;;;;;5.07;4.07;;;18.50;99.90;;;17.81;73.45;97381.13;5070611;28;20406;-73
2022/07/30 01:07:53;;;;;;;5.07;3.67;;;18.50;99.90;;;17.81;72.86;97379.22;5070789;28;20413;-73
2022/07/30 01:10:19;;;;;;;5.45;3.90;;;18.60;99.90;;;17.81;73.04;97386.47;5070787;28;20584;-74
2022/07/30 01:12:46;;;;;;;5.65;3.90;;;18.60;99.90;;;17.81;72.74;97399.84;5068990;28;20419;-74
2022/07/30 01:15:12;;;;;;;5.55;3.47;;;18.60;99.90;;;17.89;71.89;97391.94;5070510;28;20443;-74
2022/07/30 01:17:40;;;;;;;5.57;3.60;;;18.60;99.90;;;17.88;71.45;97392.22;5062719;28;20470;-74
2022/07/30 01:20:13;;;;;;;9.85;3.80;;;18.60;99.90;;;17.86;71.63;97397.88;5050416;28;20944;-74
2022/07/30 01:22:51;;;;;;;5.68;3.60;;;18.60;99.90;;;17.79;72.01;97390.22;5052803;28;20404;-73
2022/07/30 01:25:29;;;;;;;4.80;3.30;;;18.60;99.90;;;17.75;72.15;97391.91;5062038;28;20437;-73
2022/07/30 01:28:01;;;;;;;4.28;3.35;;;18.50;99.90;;;17.72;72.40;97399.75;5062237;28;20396;-74
2022/07/30 01:30:32;;;;;;;3.92;3.28;;;18.50;99.90;;;17.68;72.51;97391.50;5070344;28;20402;-74
2022/07/30 01:33:00;;;;;;;4.70;3.22;;;18.50;99.90;;;17.69;72.55;97400.31;5069866;28;20404;-73
2022/07/30 01:35:29;;;;;;;8.05;4.00;;;18.40;99.90;;;17.69;72.03;97400.31;5070334;28;20400;-73
2022/07/30 01:37:59;;;;;;;4.78;3.33;;;18.50;99.90;;;17.66;72.20;97396.38;5069056;28;20753;-73
2022/07/30 01:40:28;;;;;;;5.28;3.70;;;18.50;99.90;;;17.64;72.47;97401.22;5070265;28;20411;-73
2022/07/30 01:42:57;;;;;;;10.27;3.78;;;18.40;99.90;;;17.61;72.67;97403.66;5069651;28;20882;-73
2022/07/30 01:45:25;;;;;;;6.88;4.00;;;18.40;99.90;;;17.57;72.94;97402.66;5070370;28;20422;-74
2022/07/30 01:47:53;;;;;;;3.60;3.03;;;18.40;99.90;;;17.52;73.17;97411.56;5070217;28;20426;-74
2022/07/30 01:50:21;;;;;;;5.18;3.47;;;18.30;99.90;;;17.49;74.09;97414.84;5070306;28;20400;-74
2022/07/30 01:52:50;;;;;;;5.10;3.53;;;18.30;99.90;;;17.47;73.82;97411.66;5069478;28;20861;-74
2022/07/30 01:55:24;;;;;;;4.70;3.55;;;18.30;99.90;;;17.39;74.06;97415.81;5070071;28;20960;-74
2022/07/30 01:57:50;;;;;;;6.60;3.58;;;18.20;99.90;;;17.33;73.73;97418.88;5070190;28;20392;-74
2022/07/30 02:00:18;;;;;;;6.38;3.88;;;18.20;99.90;;;17.31;73.79;97411.13;5070262;28;20957;-74
2022/07/30 02:02:45;;;;;;;4.30;3.20;;;18.10;99.90;;;17.28;74.26;97419.75;5073821;28;20396;-74
2022/07/30 02:05:11;;;;;;;8.00;3.60;;;18.10;99.90;;;17.27;73.86;97409.34;5074116;28;20410;-74
2022/07/30 02:07:44;;;;;;;4.35;3.30;;;18.10;99.90;;;17.25;73.51;97408.84;5073998;28;20411;-74
2022/07/30 02:10:14;;;;;;;5.22;3.50;;;18.10;99.90;;;17.23;73.63;97406.44;5073905;28;20407;-74
2022/07/30 02:12:49;;;;;;;5.22;3.50;;;18.10;99.90;;;17.23;73.29;97405.66;5073699;28;20396;-73
2022/07/30 02:15:24;;;;;;;9.32;3.65;;;18.00;99.90;;;17.23;72.48;97403.78;5073978;28;20491;-73
2022/07/30 02:17:59;;;;;;;4.90;3.30;;;18.00;99.90;;;17.22;72.66;97402.19;5073954;28;20765;-74
2022/07/30 02:20:28;;;;;;;4.03;3.50;;;18.00;99.90;;;17.20;73.17;97406.25;5073686;28;20415;-73
2022/07/30 02:22:59;;;;;;;4.40;3.58;;;18.00;99.90;;;17.16;72.95;97414.06;5073309;28;20395;-73
2022/07/30 02:25:27;;;;;;;6.35;4.05;;;18.00;99.90;;;17.13;72.91;97403.97;5073610;28;20384;-74
2022/07/30 02:27:59;;;;;;;5.93;3.85;;;17.90;99.90;;;17.13;72.66;97403.16;5073688;28;20418;-73
2022/07/30 02:30:30;;;;;;;5.28;3.92;;;17.90;99.90;;;17.10;72.84;97417.09;5073678;28;20408;-74
2022/07/30 02:33:02;;;;;;;8.15;4.03;;;17.90;99.90;;;17.09;72.39;97418.19;5073207;28;20764;-74
2022/07/30 02:35:30;;;;;;;5.72;4.05;;;17.90;99.90;;;17.05;72.50;97412.66;5073584;28;20418;-73
2022/07/30 02:37:58;;;;;;;4.88;4.05;;;17.90;99.90;;;17.06;72.17;97416.13;5073466;28;20863;-73
2022/07/30 02:40:26;;;;;;;6.22;3.97;;;17.90;99.90;;;16.99;72.51;97414.59;5073359;28;20411;-73
2022/07/30 02:42:53;;;;;;;7.38;4.03;;;17.80;99.90;;;17.01;71.94;97417.78;5073104;28;20833;-73
2022/07/30 02:45:22;;;;;;;4.60;3.53;;;17.80;99.90;;;16.97;72.28;97424.78;5073345;28;20395;-73
2022/07/30 02:47:55;;;;;;;6.85;4.10;;;17.80;99.90;;;16.96;71.63;97427.75;5073398;28;20406;-74
2022/07/30 02:50:23;;;;;;;6.13;3.50;;;17.80;99.90;;;16.92;72.22;97426.72;5073320;28;20388;-73
2022/07/30 02:52:50;;;;;;;4.70;3.60;;;17.70;99.90;;;16.89;71.97;97430.00;5072557;28;20456;-74
2022/07/30 02:55:17;;;;;;;5.55;3.60;;;17.70;99.90;;;16.86;72.27;97435.91;5073088;28;20395;-74
2022/07/30 02:57:45;;;;;;;7.28;4.15;;;17.70;99.90;;;16.80;71.59;97435.22;5073121;28;20419;-74
2022/07/30 03:00:13;;;;;;;6.63;3.72;;;17.60;99.90;;;16.79;71.87;97441.63;5072994;28;20776;-74
2022/07/30 03:02:40;;;;;;;5.60;3.92;;;17.60;99.90;;;16.76;72.31;97442.22;5072968;28;20411;-74
2022/07/30 03:05:10;;;;;;;6.53;3.90;;;17.60;99.90;;;16.74;71.76;97440.91;5072777;28;20407;-73
2022/07/30 03:07:38;;;;;;;6.03;3.92;;;17.50;99.90;;;16.73;71.89;97444.66;5072959;28;20407;-74
2022/07/30 03:10:06;;;;;;;5.97;4.07;;;17.50;99.90;;;16.72;71.90;97443.88;5072853;28;20429;-74
2022/07/30 03:12:34;;;;;;;6.00;4.03;;;17.50;99.90;;;16.72;71.75;97441.19;5071222;28;20789;-74
2022/07/30 03:15:01;;;;;;;8.38;4.20;;;17.50;99.90;;;16.74;71.27;97440.91;5072288;28;20396;-74
2022/07/30 03:17:36;;;;;;;8.07;4.22;;;17.60;99.90;;;16.73;70.73;97450.00;5072885;28;20403;-74
2022/07/30 03:20:05;;;;;;;5.95;3.58;;;17.50;99.90;;;16.71;70.30;97444.94;5072713;28;20419;-73
2022/07/30 03:22:38;;;;;;;6.60;3.70;;;17.50;99.90;;;16.72;70.13;97448.44;5071262;28;20811;-74
2022/07/30 03:25:06;;;;;;;6.28;3.50;;;17.50;99.90;;;16.74;68.59;97446.25;5072373;28;20402;-74
2022/07/30 03:27:34;;;;;;;10.20;4.05;;;17.50;99.30;;;16.71;67.72;97452.97;5071361;28;20491;-73
2022/07/30 03:30:01;;;;;;;9.48;3.90;;;17.50;97.90;;;16.67;67.92;97457.31;5072420;28;20399;-74
2022/07/30 03:32:28;;;;;;;6.03;3.75;;;17.50;97.70;;;16.66;67.79;97455.72;5072477;28;20403;-74
2022/07/30 03:34:55;;;;;;;5.13;3.70;;;17.50;97.60;;;16.67;68.15;97464.53;5072079;28;20880;-74
2022/07/30 03:37:21;;;;;;;8.55;3.83;;;17.50;97.80;;;16.66;68.09;97462.94;5072487;28;20410;-74
2022/07/30 03:39:49;;;;;;;8.38;4.18;;;17.50;97.60;;;16.64;68.35;97460.56;5072152;28;20893;-75
2022/07/30 03:42:15;;;;;;;10.27;4.55;;;17.40;97.90;;;16.63;68.69;97459.75;5072236;28;20396;-74
2022/07/30 03:44:44;;;;;;;8.40;4.43;;;17.40;98.10;;;16.62;68.77;97457.38;5071735;28;20422;-74
2022/07/30 03:47:12;;;;;;;10.95;4.63;;;17.40;98.20;;;16.63;68.87;97454.41;5072324;28;20395;-74
2022/07/30 03:49:38;;;;;;;7.70;4.32;;;17.40;98.40;;;16.62;68.72;97465.38;5072257;28;20415;-74
2022/07/30 03:52:04;;;;;;;7.57;4.05;;;17.40;98.30;;;16.64;69.09;97463.22;5071914;28;20419;-74
2022/07/30 03:54:32;;;;;;;6.85;4.30;;;17.40;98.70;;;16.61;69.24;97469.94;5071586;28;20415;-74
2022/07/30 03:57:00;;;;;;;7.95;4.07;;;17.40;98.50;;;16.60;69.26;97465.69;5072067;28;20468;-74
2022/07/30 03:59:26;;;;;;;6.43;4.03;;;17.40;98.70;;;16.63;69.10;97480.34;5072017;28;20395;-73
2022/07/30 04:01:53;;;;;;;9.45;4.65;;;17.40;98.60;;;16.63;68.81;97473.13;5071802;28;20857;-73
2022/07/30 04:04:19;;;;;;;7.15;4.53;;;17.40;98.20;;;16.64;68.44;97469.38;5071444;28;20404;-73
2022/07/30 04:06:45;;;;;;;8.95;3.90;;;17.50;98.20;;;16.65;68.00;97475.50;5071782;28;20418;-74
2022/07/30 04:09:12;;;;;;;9.93;4.20;;;17.50;97.60;;;16.63;68.06;97478.47;5071771;28;20396;-74
2022/07/30 04:11:38;;;;;;;8.80;4.65;;;17.40;97.50;;;16.67;67.87;97477.91;5071649;28;20403;-73
2022/07/30 04:14:06;;;;;;;10.55;4.82;;;17.50;97.20;;;16.66;68.25;97477.09;5071240;28;20472;-74
2022/07/30 04:16:43;;;;;;;9.02;4.40;;;17.50;97.50;;;16.64;68.46;97485.41;5071567;28;20396;-74
2022/07/30 04:19:18;;;;;;;7.65;4.10;;;17.50;97.70;;;16.66;68.78;97490.47;5071606;28;20415;-73
2022/07/30 04:21:46;;;;;;;8.02;4.40;;;17.50;97.80;;;16.67;68.02;97496.63;5071306;28;20412;-74
2022/07/30 04:24:14;;;;;;;12.10;4.38;;;17.50;97.20;;;16.67;68.11;97494.75;5070143;28;20419;-74
2022/07/30 04:26:41;;;;;;;9.20;4.43;;;17.50;97.20;;;16.64;68.45;97500.66;5071299;28;20396;-74
2022/07/30 04:29:09;;;;;;;8.70;4.25;;;17.50;97.40;;;16.67;68.37;97508.09;5071446;28;20406;-74
2022/07/30 04:31:35;;;;;;;7.00;4.30;;;17.50;97.40;;;16.71;67.79;97511.78;5071134;28;20876;-73
2022/07/30 04:34:02;;;;;;;8.32;4.10;;;17.50;96.90;;;16.76;67.65;97503.72;5070713;28;20529;-74
2022/07/30 04:36:28;;;;;;;5.53;4.13;;;17.50;96.70;;;16.87;66.65;97504.34;5071189;28;20957;-74
2022/07/30 04:38:55;;;;;;;9.18;4.00;;;17.60;96.00;;;16.89;66.84;97511.00;5071309;28;20396;-74
2022/07/30 04:41:21;;;;;;;12.75;4.10;;;17.70;95.80;;;16.88;66.92;97506.75;5070931;28;20419;-73
2022/07/30 04:43:47;;;;;;;6.30;3.92;;;17.70;95.80;;;16.87;67.38;97517.72;5070533;28;20404;-73
2022/07/30 04:46:14;;;;;;;12.77;4.93;;;17.70;96.10;;;16.93;67.18;97516.56;5070988;28;20415;-74
2022/07/30 04:48:40;;;;;;;8.07;4.72;;;17.70;96.00;;;16.99;66.93;97510.84;5071112;28;20811;-74
2022/07/30 04:51:12;;;;;;;10.65;4.40;;;17.70;95.80;;;17.12;66.36;97516.59;5070987;28;20392;-73
2022/07/30 04:53:41;;;;;;;9.40;4.23;;;17.90;95.30;;;17.17;66.35;97519.97;5070434;28;20407;-73
2022/07/30 04:56:08;;;;;;;8.93;3.83;;;17.90;95.40;;;17.20;66.48;97527.44;5070910;28;20395;-74
2022/07/30 04:58:35;;;;;;;9.98;4.47;;;18.00;95.60;;;17.33;65.39;97523.22;5070971;28;20399;-73
2022/07/30 05:01:02;;;;;;;11.15;4.43;;;18.10;94.60;;;17.38;65.48;97523.13;5070893;28;20900;-74
2022/07/30 05:03:33;;;;;;;8.38;4.40;;;18.10;94.20;;;17.41;65.16;97520.69;5070307;28;20453;-74
2022/07/30 05:06:01;;;;;;;9.90;4.30;;;18.20;94.00;;;17.45;65.77;97523.56;5070716;28;20392;-74
2022/07/30 05:08:27;;;;;;;6.88;4.20;;;18.30;94.40;;;17.50;65.68;97523.50;5070780;28;20392;-74
2022/07/30 05:10:54;;;;;;;6.78;4.22;;;18.20;94.40;;;17.53;65.86;97535.47;5070630;28;20873;-74
2022/07/30 05:13:19;;;;;;;6.55;3.97;;;18.30;94.30;;;17.58;65.96;97530.06;5070091;28;20918;-74
2022/07/30 05:15:45;;;;;;;7.50;4.30;;;18.40;94.40;;;17.60;65.65;97533.22;5069209;28;20430;-74
2022/07/30 05:18:12;;;;;;;7.28;4.15;;;18.40;94.10;;;17.65;65.46;97538.56;5070514;28;20406;-74
2022/07/30 05:20:39;;;;;;;8.07;4.30;;;18.40;94.10;;;17.69;65.36;97531.50;5070482;28;20596;-74
2022/07/30 05:23:05;;;;;;;10.85;4.35;;;18.50;93.80;;;17.72;64.97;97534.41;5069938;28;20403;-74
2022/07/30 05:25:31;;;;;;;7.80;3.80;;;18.50;93.50;;;17.81;64.43;97539.09;5070458;28;20422;-75
2022/07/30 05:27:57;;;;;;;8.88;4.20;;;18.60;92.90;;;17.87;63.83;97540.59;5070443;28;20391;-75
2022/07/30 05:30:23;;;;;;;7.47;4.47;;;18.60;92.50;;;17.92;64.12;97540.50;5070515;28;20422;-75
2022/07/30 05:32:49;;;;;;;12.90;4.57;;;18.70;92.50;;;17.94;63.99;97541.00;5068658;28;20454;-74
2022/07/30 05:35:16;;;;;;;12.90;4.85;;;18.70;92.50;;;18.02;63.53;97538.44;5070280;28;20429;-75
2022/07/30 05:37:43;;;;;;;6.43;4.25;;;18.70;92.00;;;18.00;63.76;97545.97;5068917;28;20450;-75
2022/07/30 05:40:11;;;;;;;8.25;3.75;;;18.80;92.00;;;18.01;64.74;97549.44;5070294;28;20415;-73
2022/07/30 05:42:37;;;;;;;8.40;4.05;;;18.80;92.60;;;18.01;65.62;97547.56;5068980;28;20865;-74
2022/07/30 05:45:04;;;;;;;6.57;4.07;;;18.80;93.40;;;18.07;63.92;97548.28;5070010;28;20406;-74
2022/07/30 05:47:30;;;;;;;7.63;4.07;;;18.80;92.00;;;18.08;64.31;97547.97;5070338;28;20406;-74
2022/07/30 05:49:55;;;;;;;6.03;3.80;;;18.90;92.40;;;18.12;64.37;97540.13;5070328;28;20403;-74
2022/07/30 05:52:21;;;;;;;8.60;3.93;;;18.90;92.50;;;18.15;64.22;97547.59;5069942;28;20412;-75
2022/07/30 05:54:49;;;;;;;7.27;4.10;;;18.90;92.50;;;18.18;63.88;97549.69;5069899;28;20402;-74
2022/07/30 05:57:15;;;;;;;8.10;3.65;;;18.90;92.10;;;18.19;64.82;97548.59;5070230;28;20400;-75
2022/07/30 05:59:41;;;;;;;8.40;4.15;;;19.00;92.60;;;18.21;64.33;97549.09;5070146;28;20400;-73
2022/07/30 06:02:07;;;;;;;7.93;4.18;;;18.90;92.60;;;18.27;63.51;97549.81;5070053;28;20448;-74
2022/07/30 06:04:34;;;;;;;6.80;4.30;;;19.00;91.80;;;18.28;63.45;97551.38;5069606;28;20406;-75
2022/07/30 06:07:00;;;;;;;10.45;4.40;;;19.00;91.60;;;18.38;62.62;97553.88;5070052;28;20399;-74
2022/07/30 06:09:26;;;;;;;8.30;4.35;;;19.10;91.10;;;18.38;63.70;97557.34;5069917;28;20404;-75
2022/07/30 06:11:53;;;;;;;7.55;4.28;;;19.10;91.60;;;18.46;62.42;97551.31;5069968;28;20399;-76
2022/07/30 06:14:19;;;;;;;7.82;4.03;;;19.20;90.80;;;18.51;62.55;97556.56;5058809;28;20415;-75
2022/07/30 06:16:45;;;;;;;10.60;4.33;;;19.20;90.80;;;18.54;62.59;97561.34;5058039;28;20415;-74
2022/07/30 06:19:11;;;;;;;7.10;4.10;;;19.30;90.90;;;18.53;63.75;97561.63;5057360;28;20932;-76
2022/07/30 06:21:37;;;;;;;8.95;4.30;;;19.30;91.40;;;18.55;62.94;97565.59;5061012;28;20425;-75
2022/07/30 06:24:04;;;;;;;8.30;4.28;;;19.30;91.10;;;18.62;62.58;97554.50;5060727;28;20421;-78
2022/07/30 06:26:29;;;;;;;7.43;4.10;;;19.30;90.80;;;18.63;61.83;97566.81;5060218;28;20403;-78
2022/07/30 06:28:57;;;;;;;6.75;3.70;;;19.40;90.00;;;18.65;62.81;97563.81;5056103;28;20453;-74
2022/07/30 06:31:23;;;;;;;10.33;4.37;;;19.40;90.70;;;18.69;63.21;97562.94;5060711;28;20515;-74
2022/07/30 06:33:49;;;;;;;8.00;3.83;;;19.40;91.10;;;18.73;62.79;97563.13;5069012;28;20404;-74
2022/07/30 06:36:15;;;;;;;8.15;4.70;;;19.40;90.90;;;18.82;61.35;97561.34;5069893;28;20457;-74
2022/07/30 06:38:41;;;;;;;6.75;3.78;;;19.50;89.60;;;18.84;62.64;97559.16;5069921;28;20400;-74
2022/07/30 06:41:08;;;;;;;8.02;5.00;;;19.50;90.40;;;18.83;62.99;97566.41;5069540;28;20408;-75
2022/07/30 06:43:34;;;;;;;9.07;4.70;;;19.60;90.80;;;18.92;61.50;97564.63;5069282;28;20411;-74
2022/07/30 06:46:01;;;;;;;12.15;5.32;;;19.60;89.20;;;18.95;61.08;97577.41;5069733;28;20400;-73
2022/07/30 06:48:33;;;;;;;10.83;5.83;;;19.70;88.90;;;18.99;60.36;97563.41;5072938;28;20411;-76
2022/07/30 06:50:59;;;;;;;9.43;4.70;;;19.70;87.80;;;19.00;61.55;97568.47;5073110;28;20487;-74
2022/07/30 06:53:25;;;;;;;9.82;5.20;;;19.70;88.80;;;19.10;61.60;97576.31;5068736;22;20440;-74
2022/07/30 06:55:51;;;;;;;8.75;4.70;;;19.70;89.20;;;19.14;61.63;97573.81;5041254;28;20395;-77
2022/07/30 06:58:16;;;;;;;10.85;5.05;;;19.80;89.00;;;19.15;61.59;97583.47;5040944;28;20433;-76
2022/07/30 07:00:43;;;;;;;10.63;5.82;;;19.80;88.90;;;19.22;60.62;97587.31;5041231;28;20447;-75
2022/07/30 07:03:11;;;;;;;10.63;4.93;;;19.90;87.90;;;19.22;61.17;97581.97;5039161;28;20416;-75
2022/07/30 07:05:37;;;;;;;10.98;5.25;;;19.90;87.80;;;19.27;59.74;97581.03;5025476;28;20409;-75
2022/07/30 07:08:03;;;;;;;6.65;4.22;;;20.00;86.10;;;19.29;59.80;97576.97;5032974;28;20406;-75
2022/07/30 07:10:29;;;;;;;12.18;4.68;;;20.00;86.20;;;19.30;59.96;97577.75;5033063;28;20401;-75
2022/07/30 07:12:55;;;;;;;10.67;5.07;;;20.00;86.10;;;19.33;59.44;97583.31;5032092;28;20884;-75
2022/07/30 07:15:22;;;;;;;9.50;4.70;;;20.00;85.30;;;19.41;59.71;97586.38;5032838;28;20410;-76
2022/07/30 07:17:48;;;;;;;11.10;4.70;;;20.10;85.80;;;19.43;59.73;97582.28;5033008;28;20403;-74
2022/07/30 07:20:15;;;;;;;8.40;4.30;;;20.10;85.50;;;19.53;59.67;97589.38;5032920;28;20513;-75
2022/07/30 07:22:41;;;;;;;11.88;5.18;;;20.20;85.90;;;19.68;56.85;97597.06;5032438;28;20410;-75
2022/07/30 07:25:08;;;;;;;9.20;4.60;;;20.30;81.60;;;19.67;57.15;97592.78;5032519;28;20407;-76
2022/07/30 07:27:35;;;;;;;11.45;5.47;;;20.40;81.30;;;19.74;57.05;97587.78;5032634;28;20478;-76
2022/07/30 07:30:01;;;;;;;11.85;4.75;;;20.40;81.20;;;19.74;58.12;97581.63;5032640;28;20406;-76
2022/07/30 07:32:27;;;;;;;11.30;5.43;;;20.40;82.30;;;19.82;56.36;97586.25;5032758;28;20410;-76
2022/07/30 07:34:53;;;;;;;8.40;4.03;;;20.50;80.70;;;19.80;56.82;97591.13;5031126;28;20838;-76
2022/07/30 07:37:20;;;;;;;7.25;4.20;;;20.50;80.40;;;19.82;57.06;97589.75;5032803;28;20498;-76
2022/07/30 07:39:46;;;;;;;10.30;4.50;;;20.50;80.70;;;19.86;57.53;97587.22;5032688;28;20412;-76
2022/07/30 07:42:12;;;;;;;7.83;4.00;;;20.50;81.20;;;19.87;56.48;97594.97;5032294;28;20419;-75
2022/07/30 07:44:38;;;;;;;7.90;4.27;;;20.60;79.90;;;19.94;55.66;97587.28;5031950;28;20457;-78
2022/07/30 07:47:04;;;;;;;5.30;3.20;;;20.60;78.90;;;19.97;56.38;97593.94;5032388;28;20411;-77
2022/07/30 07:49:30;;;;;;;6.72;3.60;;;20.70;79.40;;;19.97;56.23;97592.06;5032294;28;20896;-77
2022/07/30 07:51:56;;;;;;;6.68;3.70;;;20.60;79.30;;;20.06;54.70;97589.44;5032016;28;20407;-78
2022/07/30 07:54:23;;;;;;;8.75;4.20;;;20.70;76.70;;;20.21;53.58;97589.03;5031812;28;20426;-79
2022/07/30 07:56:50;;;;;;;6.38;3.53;;;20.90;75.40;;;20.31;54.09;97593.34;5033352;28;20415;-78
2022/07/30 07:59:16;;;;;;;9.68;3.90;;;20.90;75.70;;;20.40;51.35;97583.47;5022777;28;20421;-79
2022/07/30 08:01:42;;;;;;;6.80;3.50;;;21.10;72.50;;;20.40;52.89;97581.56;5031881;28;20423;-85
2022/07/30 08:04:08;;;;;;;8.77;3.70;;;21.10;74.00;;;20.45;52.41;97594.88;5031576;28;20407;-89
2022/07/30 08:06:35;;;;;;;8.68;4.05;;;21.10;73.30;;;20.60;49.85;97596.34;5032363;28;20476;-80
2022/07/30 08:09:01;;;;;;;8.40;3.88;;;21.20;70.30;;;20.66;49.99;97591.66;5032076;28;20407;-85
2022/07/30 08:11:28;;;;;;;6.45;3.00;;;21.30;69.90;;;20.71;51.24;97600.38;5031961;28;20403;-85
2022/07/30 08:13:55;;;;;;;9.02;3.53;;;21.40;71.20;;;20.74;51.45;97602.44;5032044;28;20952;-82
2022/07/30 08:16:21;;;;;;;5.13;3.10;;;21.40;71.70;;;20.81;50.63;97599.31;5031847;28;20403;-82
2022/07/30 08:18:47;;;;;;;7.45;2.92;;;21.50;70.30;;;20.90;51.95;97591.25;5022738;28;20418;-84
2022/07/30 08:21:14;;;;;;;9.53;3.40;;;21.50;71.90;;;20.99;51.89;97602.81;5027659;28;20416;-82
2022/07/30 08:23:40;;;;;;;8.05;3.25;;;21.60;71.70;;;21.11;51.55;97595.75;5023857;28;20428;-80
2022/07/30 08:26:06;;;;;;;6.20;2.88;;;21.70;71.50;;;21.29;51.88;97590.41;5022596;28;20407;-78
2022/07/30 08:28:34;;;;;;;11.80;3.50;;;21.90;71.90;;;21.40;51.25;97591.69;5015022;28;20770;-78
2022/07/30 08:31:00;;;;;;;7.88;2.78;;;22.00;70.90;;;21.54;50.54;97589.63;5031750;28;20399;-78
2022/07/30 08:33:26;;;;;;;7.20;3.03;;;22.10;70.30;;;21.61;49.61;97593.44;5030802;28;20438;-78
2022/07/30 08:35:52;;;;;;;9.43;3.17;;;22.20;68.60;;;21.73;49.23;97587.41;5031501;28;20552;-77
2022/07/30 08:38:18;;;;;;;6.28;2.80;;;22.30;68.20;;;21.81;48.74;97591.19;5031512;28;20403;-89
2022/07/30 08:40:45;;;;;;;7.40;2.45;;;22.40;67.60;;;21.87;48.33;97598.84;5031301;28;20493;-88
2022/07/30 08:43:11;;;;;;;10.80;3.15;;;22.50;67.60;;;22.00;46.72;97607.88;5032574;28;20489;-93
2022/07/30 08:45:39;;;;;;;7.70;3.20;;;22.60;65.50;;;22.03;43.98;97598.38;5034475;28;20461;-92
2022/07/30 08:48:09;;;;;;;7.47;2.83;;;22.70;61.00;;;22.29;45.50;97604.47;5032775;28;20403;-88
2022/07/30 08:50:36;;;;;;;13.43;3.70;;;22.90;62.70;;;22.40;45.28;97600.34;5032978;28;20463;-89
2022/07/30 08:53:05;;;;;;;8.00;2.92;;;23.00;62.00;;;22.55;45.60;97601.72;5031903;28;20473;-85
2022/07/30 08:55:37;;;;;;;6.13;2.75;;;23.20;62.50;;;22.68;44.34;97604.19;5036214;28;20465;-94
2022/07/30 08:58:11;;;;;;;7.80;3.33;;;23.30;61.20;;;22.78;43.20;97595.75;5035598;28;20803;-91
2022/07/30 09:00:38;;;;;;;12.65;3.55;;;23.40;60.20;;;22.75;43.14;97598.31;5033583;28;20414;-90
2022/07/30 09:03:04;;;;;;;9.20;3.10;;;23.40;59.20;;;22.87;44.10;97595.72;5031206;28;20923;-86
2022/07/30 09:05:31;;;;;;;6.82;2.95;;;23.50;60.60;;;23.07;44.31;97602.28;5032565;28;20407;-93
2022/07/30 09:07:57;;;;;;;7.78;3.88;;;23.60;60.90;;;23.05;41.80;97609.91;5032601;28;20799;-91
2022/07/30 09:10:24;;;;;;;7.20;2.97;;;23.70;57.80;;;23.24;42.83;97601.38;5034578;28;20414;-90
2022/07/30 09:12:50;;;;;;;8.20;2.80;;;23.80;58.80;;;23.35;43.18;97597.97;5033076;28;20878;-92
2022/07/30 09:15:19;;;;;;;8.18;2.70;;;24.00;59.60;;;23.50;43.37;97596.63;5034226;28;20425;-91
2022/07/30 09:17:56;;;;;;;10.52;3.03;;;24.00;59.50;;;23.34;41.32;97591.00;5032748;28;20407;-88
2022/07/30 09:20:25;;;;;;;9.07;2.20;;;24.00;57.60;;;23.36;42.45;97586.06;5032265;28;20507;-89
2022/07/30 09:22:54;;;;;;;6.23;2.30;;;23.90;58.10;;;23.43;43.38;97596.34;5033018;28;20403;-94
2022/07/30 09:25:37;;;;;;;10.90;2.83;;;24.00;59.20;;;23.63;42.28;97592.84;5032304;28;20477;-80
2022/07/30 09:28:04;;;;;;;8.02;2.60;;;24.20;58.40;;;23.76;41.91;97599.91;5031166;28;20406;-85
2022/07/30 09:30:46;;;;;;;3.47;2.22;;;24.30;58.30;;;23.76;40.37;97601.81;5030933;28;20391;-81
2022/07/30 09:33:14;;;;;;;7.45;2.50;;;24.40;56.30;;;23.71;41.04;97610.91;5023928;28;20417;-81
2022/07/30 09:35:41;;;;;;;6.10;2.20;;;24.30;56.50;;;23.83;40.29;97607.50;5030150;28;20819;-81
2022/07/30 09:38:08;;;;;;;6.67;2.30;;;24.40;57.10;;;23.71;39.18;97592.00;5030392;28;20457;-83
2022/07/30 09:40:34;;;;;;;8.65;2.63;;;24.40;54.50;;;23.53;40.03;97591.34;5021684;28;20448;-85
2022/07/30 09:43:03;;;;;;;7.88;2.55;;;24.20;55.30;;;23.48;40.67;97593.47;5022127;28;20401;-85
2022/07/30 09:45:29;;;;;;;7.85;2.60;;;24.10;56.30;;;23.33;38.99;97594.00;5024166;28;20495;-84
2022/07/30 09:47:55;;;;;;;5.22;2.28;;;24.00;54.50;;;23.41;40.12;97587.75;5025309;28;20415;-84
2022/07/30 09:50:26;;;;;;;9.10;2.38;;;24.00;55.60;;;23.54;39.26;97592.13;5019437;28;20470;-84
2022/07/30 09:52:53;;;;;;;5.32;2.42;;;24.10;54.70;;;23.74;40.72;97585.94;5022922;28;20403;-93
2022/07/30 09:55:30;;;;;;;5.40;2.33;;;24.30;56.30;;;23.96;40.17;97587.50;5031481;28;20514;-83
2022/07/30 09:57:58;;;;;;;5.10;2.38;;;24.50;56.30;;;24.00;39.83;97598.41;5031704;28;20403;-81
2022/07/30 10:00:28;;;;;;;4.47;2.13;;;24.60;54.90;;;24.10;39.93;97598.00;5030716;28;20927;-86
2022/07/30 10:02:55;;;;;;;5.15;2.28;;;24.70;55.10;;;24.30;39.04;97584.44;5028231;28;20424;-84
2022/07/30 10:05:23;;;;;;;7.18;2.28;;;24.80;54.60;;;24.51;38.32;97600.59;5023045;28;20409;-87
2022/07/30 10:07:53;;;;;;;5.67;1.73;;;25.10;53.60;;;24.80;37.31;97590.72;5018152;28;20497;-84
2022/07/30 10:10:24;;;;;;;4.87;2.40;;;25.40;52.70;;;24.92;34.65;97591.53;5033587;28;20439;-90
2022/07/30 10:12:53;;;;;;;7.72;2.17;;;25.60;49.60;;;25.05;35.44;97590.41;5019606;28;20418;-83
2022/07/30 10:15:20;;;;;;;4.47;1.93;;;25.70;50.30;;;25.25;35.82;97596.81;5028754;28;20407;-85
2022/07/30 10:17:48;;;;;;;6.93;2.25;;;25.90;50.80;;;25.26;35.32;97589.50;5030240;28;20410;-80
2022/07/30 10:20:14;;;;;;;4.38;1.85;;;25.90;50.10;;;25.29;35.41;97586.88;5029713;28;20399;-81